sensor_id;sensor_type;location;lat;lon;timestamp;P1;durP1;ratioP1;P2;durP2;ratioP2
18610;SDS011;9435;52.122;5.502;2022-11-15T00:02:15;68.85;;;25.40;;
18610;SDS011;9435;52.122;5.502;2022-11-15T00:04:42;67.45;;;25.73;;
18610;SDS011;9435;52.122;5.502;2022-11-15T00:07:11;65.85;;;25.52;;
18610;SDS011;9435;52.122;5.502;2022-11-15T00:09:38;68.45;;;25.85;;
18610;SDS011;9435;52.122;5.502;2022-11-15T00:12:05;66.25;;;25.25;;
18610;SDS011;9435;52.122;5.502;2022-11-15T00:14:32;69.20;;;26.58;;
18610;SDS011;9435;52.122;5.502;2022-11-15T00:16:59;68.88;;;25.77;;
18610;SDS011;9435;52.122;5.502;2022-11-15T00:19:26;67.88;;;25.55;;
18610;SDS011;9435;52.122;5.502;2022-11-15T00:21:53;64.75;;;25.42;;
18610;SDS011;9435;52.122;5.502;2022-11-15T00:24:21;79.50;;;26.77;;
18610;SDS011;9435;52.122;5.502;2022-11-15T00:26:48;75.88;;;27.20;;
18610;SDS011;9435;52.122;5.502;2022-11-15T00:29:15;78.80;;;27.55;;
18610;SDS011;9435;52.122;5.502;2022-11-15T00:31:42;87.47;;;28.67;;
18610;SDS011;9435;52.122;5.502;2022-11-15T00:34:09;83.82;;;26.75;;
18610;SDS011;9435;52.122;5.502;2022-11-15T00:36:36;88.20;;;28.10;;
18610;SDS011;9435;52.122;5.502;2022-11-15T00:39:03;78.40;;;27.75;;
18610;SDS011;9435;52.122;5.502;2022-11-15T00:41:32;86.97;;;29.02;;
18610;SDS011;9435;52.122;5.502;2022-11-15T00:43:59;86.70;;;28.27;;
18610;SDS011;9435;52.122;5.502;2022-11-15T00:46:26;92.30;;;30.38;;
18610;SDS011;9435;52.122;5.502;2022-11-15T00:48:53;85.05;;;28.33;;
18610;SDS011;9435;52.122;5.502;2022-11-15T00:51:20;93.30;;;30.35;;
18610;SDS011;9435;52.122;5.502;2022-11-15T00:53:47;91.20;;;30.58;;
18610;SDS011;9435;52.122;5.502;2022-11-15T00:56:14;91.68;;;30.60;;
18610;SDS011;9435;52.122;5.502;2022-11-15T00:58:43;90.75;;;29.40;;
18610;SDS011;9435;52.122;5.502;2022-11-15T01:01:10;95.10;;;30.40;;
18610;SDS011;9435;52.122;5.502;2022-11-15T01:03:39;91.05;;;29.63;;
18610;SDS011;9435;52.122;5.502;2022-11-15T01:06:09;92.03;;;30.00;;
18610;SDS011;9435;52.122;5.502;2022-11-15T01:08:37;100.80;;;31.13;;
18610;SDS011;9435;52.122;5.502;2022-11-15T01:11:06;99.03;;;30.85;;
18610;SDS011;9435;52.122;5.502;2022-11-15T01:13:35;92.93;;;29.55;;
18610;SDS011;9435;52.122;5.502;2022-11-15T01:16:07;93.85;;;30.58;;
18610;SDS011;9435;52.122;5.502;2022-11-15T01:18:35;95.07;;;29.92;;
18610;SDS011;9435;52.122;5.502;2022-11-15T01:21:04;96.63;;;30.27;;
18610;SDS011;9435;52.122;5.502;2022-11-15T01:23:32;90.13;;;30.35;;
18610;SDS011;9435;52.122;5.502;2022-11-15T01:26:00;91.30;;;30.95;;
18610;SDS011;9435;52.122;5.502;2022-11-15T01:28:29;93.55;;;31.67;;
18610;SDS011;9435;52.122;5.502;2022-11-15T01:30:57;88.72;;;30.23;;
18610;SDS011;9435;52.122;5.502;2022-11-15T01:33:26;84.82;;;29.58;;
18610;SDS011;9435;52.122;5.502;2022-11-15T01:35:54;81.90;;;30.27;;
18610;SDS011;9435;52.122;5.502;2022-11-15T01:38:21;96.95;;;31.67;;
18610;SDS011;9435;52.122;5.502;2022-11-15T01:40:48;83.13;;;30.60;;
18610;SDS011;9435;52.122;5.502;2022-11-15T01:43:19;94.05;;;31.10;;
18610;SDS011;9435;52.122;5.502;2022-11-15T01:45:49;95.57;;;31.83;;
18610;SDS011;9435;52.122;5.502;2022-11-15T01:48:20;95.18;;;31.88;;
18610;SDS011;9435;52.122;5.502;2022-11-15T01:50:49;90.80;;;31.73;;
18610;SDS011;9435;52.122;5.502;2022-11-15T01:53:17;82.30;;;30.63;;
18610;SDS011;9435;52.122;5.502;2022-11-15T01:55:47;85.63;;;30.95;;
18610;SDS011;9435;52.122;5.502;2022-11-15T01:58:14;90.72;;;30.85;;
18610;SDS011;9435;52.122;5.502;2022-11-15T02:00:41;91.28;;;30.65;;
18610;SDS011;9435;52.122;5.502;2022-11-15T02:03:09;95.70;;;32.03;;
18610;SDS011;9435;52.122;5.502;2022-11-15T02:05:36;87.60;;;30.92;;
18610;SDS011;9435;52.122;5.502;2022-11-15T02:08:05;99.50;;;31.77;;
18610;SDS011;9435;52.122;5.502;2022-11-15T02:10:44;88.30;;;31.35;;
18610;SDS011;9435;52.122;5.502;2022-11-15T02:13:11;83.32;;;30.20;;
18610;SDS011;9435;52.122;5.502;2022-11-15T02:15:40;85.13;;;30.70;;
18610;SDS011;9435;52.122;5.502;2022-11-15T02:18:17;88.15;;;31.67;;
18610;SDS011;9435;52.122;5.502;2022-11-15T02:21:03;90.90;;;32.42;;
18610;SDS011;9435;52.122;5.502;2022-11-15T02:27:01;82.15;;;30.92;;
18610;SDS011;9435;52.122;5.502;2022-11-15T02:30:00;85.45;;;31.73;;
18610;SDS011;9435;52.122;5.502;2022-11-15T02:32:36;83.05;;;31.33;;
18610;SDS011;9435;52.122;5.502;2022-11-15T02:35:12;93.40;;;32.22;;
18610;SDS011;9435;52.122;5.502;2022-11-15T02:37:47;96.43;;;33.35;;
18610;SDS011;9435;52.122;5.502;2022-11-15T02:40:23;91.25;;;32.90;;
18610;SDS011;9435;52.122;5.502;2022-11-15T02:42:55;87.70;;;32.78;;
18610;SDS011;9435;52.122;5.502;2022-11-15T02:45:46;94.35;;;33.42;;
18610;SDS011;9435;52.122;5.502;2022-11-15T02:48:19;81.07;;;31.98;;
18610;SDS011;9435;52.122;5.502;2022-11-15T02:50:48;86.55;;;32.13;;
18610;SDS011;9435;52.122;5.502;2022-11-15T02:53:15;88.82;;;33.25;;
18610;SDS011;9435;52.122;5.502;2022-11-15T02:55:43;92.78;;;33.28;;
18610;SDS011;9435;52.122;5.502;2022-11-15T03:01:19;80.30;;;32.47;;
18610;SDS011;9435;52.122;5.502;2022-11-15T03:03:59;79.13;;;32.10;;
18610;SDS011;9435;52.122;5.502;2022-11-15T03:06:35;82.63;;;32.58;;
18610;SDS011;9435;52.122;5.502;2022-11-15T03:09:09;84.05;;;31.58;;
18610;SDS011;9435;52.122;5.502;2022-11-15T03:11:45;82.72;;;32.17;;
18610;SDS011;9435;52.122;5.502;2022-11-15T03:14:19;85.45;;;33.22;;
18610;SDS011;9435;52.122;5.502;2022-11-15T03:16:51;87.45;;;32.40;;
18610;SDS011;9435;52.122;5.502;2022-11-15T03:19:28;89.53;;;34.67;;
18610;SDS011;9435;52.122;5.502;2022-11-15T03:21:59;87.25;;;32.65;;
18610;SDS011;9435;52.122;5.502;2022-11-15T03:24:30;85.85;;;33.95;;
18610;SDS011;9435;52.122;5.502;2022-11-15T03:27:02;86.68;;;33.95;;
18610;SDS011;9435;52.122;5.502;2022-11-15T03:29:32;84.60;;;33.25;;
18610;SDS011;9435;52.122;5.502;2022-11-15T03:32:05;82.80;;;33.38;;
18610;SDS011;9435;52.122;5.502;2022-11-15T03:34:39;92.57;;;34.90;;
18610;SDS011;9435;52.122;5.502;2022-11-15T03:37:10;91.03;;;34.90;;
18610;SDS011;9435;52.122;5.502;2022-11-15T03:39:41;90.60;;;34.20;;
18610;SDS011;9435;52.122;5.502;2022-11-15T03:42:12;84.57;;;33.33;;
18610;SDS011;9435;52.122;5.502;2022-11-15T03:44:47;82.47;;;32.20;;
18610;SDS011;9435;52.122;5.502;2022-11-15T03:47:20;85.15;;;33.92;;
18610;SDS011;9435;52.122;5.502;2022-11-15T03:49:53;94.18;;;34.33;;
18610;SDS011;9435;52.122;5.502;2022-11-15T03:52:24;89.10;;;35.17;;
18610;SDS011;9435;52.122;5.502;2022-11-15T03:54:53;101.75;;;35.30;;
18610;SDS011;9435;52.122;5.502;2022-11-15T03:57:21;88.55;;;35.13;;
18610;SDS011;9435;52.122;5.502;2022-11-15T03:59:48;85.57;;;33.30;;
18610;SDS011;9435;52.122;5.502;2022-11-15T04:02:15;101.78;;;36.80;;
18610;SDS011;9435;52.122;5.502;2022-11-15T04:04:42;94.82;;;36.00;;
18610;SDS011;9435;52.122;5.502;2022-11-15T04:07:10;101.28;;;36.95;;
18610;SDS011;9435;52.122;5.502;2022-11-15T04:09:37;105.32;;;37.60;;
18610;SDS011;9435;52.122;5.502;2022-11-15T04:12:24;96.43;;;38.20;;
18610;SDS011;9435;52.122;5.502;2022-11-15T04:14:57;95.93;;;36.75;;
18610;SDS011;9435;52.122;5.502;2022-11-15T04:17:37;98.22;;;35.60;;
18610;SDS011;9435;52.122;5.502;2022-11-15T04:20:07;96.68;;;36.45;;
18610;SDS011;9435;52.122;5.502;2022-11-15T04:22:55;95.43;;;35.58;;
18610;SDS011;9435;52.122;5.502;2022-11-15T04:25:41;100.03;;;37.03;;
18610;SDS011;9435;52.122;5.502;2022-11-15T04:28:08;96.88;;;37.25;;
18610;SDS011;9435;52.122;5.502;2022-11-15T04:30:36;92.38;;;36.45;;
18610;SDS011;9435;52.122;5.502;2022-11-15T04:33:03;94.53;;;36.67;;
18610;SDS011;9435;52.122;5.502;2022-11-15T04:35:30;97.22;;;36.88;;
18610;SDS011;9435;52.122;5.502;2022-11-15T04:37:58;103.30;;;37.25;;
18610;SDS011;9435;52.122;5.502;2022-11-15T04:40:25;92.15;;;36.20;;
18610;SDS011;9435;52.122;5.502;2022-11-15T04:42:52;99.18;;;37.20;;
18610;SDS011;9435;52.122;5.502;2022-11-15T04:45:19;93.60;;;36.28;;
18610;SDS011;9435;52.122;5.502;2022-11-15T04:47:46;97.70;;;36.47;;
18610;SDS011;9435;52.122;5.502;2022-11-15T04:50:14;98.47;;;35.83;;
18610;SDS011;9435;52.122;5.502;2022-11-15T04:52:42;86.18;;;35.05;;
18610;SDS011;9435;52.122;5.502;2022-11-15T04:55:11;94.70;;;36.40;;
18610;SDS011;9435;52.122;5.502;2022-11-15T04:57:38;90.05;;;35.90;;
18610;SDS011;9435;52.122;5.502;2022-11-15T05:00:07;85.78;;;34.85;;
18610;SDS011;9435;52.122;5.502;2022-11-15T05:02:36;84.50;;;33.83;;
18610;SDS011;9435;52.122;5.502;2022-11-15T05:05:20;90.32;;;35.03;;
18610;SDS011;9435;52.122;5.502;2022-11-15T05:07:47;89.32;;;36.13;;
18610;SDS011;9435;52.122;5.502;2022-11-15T05:10:16;86.32;;;34.55;;
18610;SDS011;9435;52.122;5.502;2022-11-15T05:12:43;95.28;;;35.90;;
18610;SDS011;9435;52.122;5.502;2022-11-15T05:15:10;90.70;;;35.35;;
18610;SDS011;9435;52.122;5.502;2022-11-15T05:17:37;86.07;;;34.35;;
18610;SDS011;9435;52.122;5.502;2022-11-15T05:20:04;91.25;;;35.35;;
18610;SDS011;9435;52.122;5.502;2022-11-15T05:22:32;98.47;;;36.20;;
18610;SDS011;9435;52.122;5.502;2022-11-15T05:24:59;89.85;;;33.28;;
18610;SDS011;9435;52.122;5.502;2022-11-15T05:27:27;89.65;;;35.20;;
18610;SDS011;9435;52.122;5.502;2022-11-15T05:29:54;90.05;;;35.10;;
18610;SDS011;9435;52.122;5.502;2022-11-15T05:32:21;89.25;;;35.05;;
18610;SDS011;9435;52.122;5.502;2022-11-15T05:34:49;86.85;;;34.50;;
18610;SDS011;9435;52.122;5.502;2022-11-15T05:37:16;95.53;;;35.13;;
18610;SDS011;9435;52.122;5.502;2022-11-15T05:39:44;82.50;;;33.83;;
18610;SDS011;9435;52.122;5.502;2022-11-15T05:42:12;81.70;;;33.25;;
18610;SDS011;9435;52.122;5.502;2022-11-15T05:44:46;87.85;;;35.22;;
18610;SDS011;9435;52.122;5.502;2022-11-15T05:47:15;94.53;;;34.60;;
18610;SDS011;9435;52.122;5.502;2022-11-15T05:49:45;98.38;;;36.20;;
18610;SDS011;9435;52.122;5.502;2022-11-15T05:52:16;89.43;;;34.55;;
18610;SDS011;9435;52.122;5.502;2022-11-15T05:54:45;86.82;;;33.47;;
18610;SDS011;9435;52.122;5.502;2022-11-15T05:57:12;90.03;;;34.75;;
18610;SDS011;9435;52.122;5.502;2022-11-15T05:59:39;92.45;;;35.78;;
18610;SDS011;9435;52.122;5.502;2022-11-15T06:02:09;97.95;;;35.65;;
18610;SDS011;9435;52.122;5.502;2022-11-15T06:04:37;90.68;;;33.85;;
18610;SDS011;9435;52.122;5.502;2022-11-15T06:07:05;87.03;;;33.70;;
18610;SDS011;9435;52.122;5.502;2022-11-15T06:09:32;95.00;;;35.63;;
18610;SDS011;9435;52.122;5.502;2022-11-15T06:11:59;90.45;;;34.08;;
18610;SDS011;9435;52.122;5.502;2022-11-15T06:14:26;94.18;;;34.75;;
18610;SDS011;9435;52.122;5.502;2022-11-15T06:16:53;91.40;;;34.50;;
18610;SDS011;9435;52.122;5.502;2022-11-15T06:19:22;84.82;;;34.00;;
18610;SDS011;9435;52.122;5.502;2022-11-15T06:21:49;85.82;;;34.67;;
18610;SDS011;9435;52.122;5.502;2022-11-15T06:24:16;94.72;;;34.72;;
18610;SDS011;9435;52.122;5.502;2022-11-15T06:26:43;94.93;;;35.20;;
18610;SDS011;9435;52.122;5.502;2022-11-15T06:29:10;91.18;;;35.20;;
18610;SDS011;9435;52.122;5.502;2022-11-15T06:31:37;90.72;;;34.47;;
18610;SDS011;9435;52.122;5.502;2022-11-15T06:34:04;89.18;;;35.42;;
18610;SDS011;9435;52.122;5.502;2022-11-15T06:36:33;95.22;;;35.65;;
18610;SDS011;9435;52.122;5.502;2022-11-15T06:39:00;103.72;;;34.90;;
18610;SDS011;9435;52.122;5.502;2022-11-15T06:41:28;93.93;;;34.95;;
18610;SDS011;9435;52.122;5.502;2022-11-15T06:43:55;86.63;;;32.38;;
18610;SDS011;9435;52.122;5.502;2022-11-15T06:46:23;80.82;;;32.20;;
18610;SDS011;9435;52.122;5.502;2022-11-15T06:48:50;86.55;;;32.45;;
18610;SDS011;9435;52.122;5.502;2022-11-15T06:51:17;88.72;;;33.13;;
18610;SDS011;9435;52.122;5.502;2022-11-15T06:53:45;75.18;;;32.58;;
18610;SDS011;9435;52.122;5.502;2022-11-15T06:56:13;85.25;;;32.60;;
18610;SDS011;9435;52.122;5.502;2022-11-15T06:58:40;82.60;;;32.90;;
18610;SDS011;9435;52.122;5.502;2022-11-15T07:01:07;85.97;;;33.40;;
18610;SDS011;9435;52.122;5.502;2022-11-15T07:03:36;82.07;;;32.17;;
18610;SDS011;9435;52.122;5.502;2022-11-15T07:06:04;77.40;;;32.28;;
18610;SDS011;9435;52.122;5.502;2022-11-15T07:08:32;80.68;;;31.92;;
18610;SDS011;9435;52.122;5.502;2022-11-15T07:11:02;87.03;;;33.53;;
18610;SDS011;9435;52.122;5.502;2022-11-15T07:13:33;88.00;;;34.05;;
18610;SDS011;9435;52.122;5.502;2022-11-15T07:16:02;80.45;;;31.88;;
18610;SDS011;9435;52.122;5.502;2022-11-15T07:18:29;85.88;;;33.00;;
18610;SDS011;9435;52.122;5.502;2022-11-15T07:20:59;85.72;;;32.17;;
18610;SDS011;9435;52.122;5.502;2022-11-15T07:23:27;81.47;;;33.08;;
18610;SDS011;9435;52.122;5.502;2022-11-15T07:25:55;84.47;;;32.55;;
18610;SDS011;9435;52.122;5.502;2022-11-15T07:28:25;74.72;;;31.08;;
18610;SDS011;9435;52.122;5.502;2022-11-15T07:30:52;84.43;;;32.85;;
18610;SDS011;9435;52.122;5.502;2022-11-15T07:33:19;87.55;;;34.03;;
18610;SDS011;9435;52.122;5.502;2022-11-15T07:35:46;83.32;;;31.88;;
18610;SDS011;9435;52.122;5.502;2022-11-15T07:38:16;78.85;;;31.17;;
18610;SDS011;9435;52.122;5.502;2022-11-15T07:40:45;81.53;;;31.88;;
18610;SDS011;9435;52.122;5.502;2022-11-15T07:43:12;77.15;;;32.78;;
18610;SDS011;9435;52.122;5.502;2022-11-15T07:45:41;80.95;;;32.05;;
18610;SDS011;9435;52.122;5.502;2022-11-15T07:48:11;80.75;;;31.55;;
18610;SDS011;9435;52.122;5.502;2022-11-15T07:50:40;79.10;;;31.35;;
18610;SDS011;9435;52.122;5.502;2022-11-15T07:53:08;76.22;;;30.83;;
18610;SDS011;9435;52.122;5.502;2022-11-15T07:55:36;78.68;;;31.60;;
18610;SDS011;9435;52.122;5.502;2022-11-15T07:58:06;75.30;;;30.67;;
18610;SDS011;9435;52.122;5.502;2022-11-15T08:00:34;81.68;;;31.85;;
18610;SDS011;9435;52.122;5.502;2022-11-15T08:03:04;86.38;;;32.47;;
18610;SDS011;9435;52.122;5.502;2022-11-15T08:05:33;84.65;;;31.42;;
18610;SDS011;9435;52.122;5.502;2022-11-15T08:08:00;74.75;;;31.75;;
18610;SDS011;9435;52.122;5.502;2022-11-15T08:10:28;77.45;;;30.98;;
18610;SDS011;9435;52.122;5.502;2022-11-15T08:12:59;70.32;;;29.63;;
18610;SDS011;9435;52.122;5.502;2022-11-15T08:15:27;77.07;;;30.05;;
18610;SDS011;9435;52.122;5.502;2022-11-15T08:17:54;70.35;;;30.38;;
18610;SDS011;9435;52.122;5.502;2022-11-15T08:20:24;71.32;;;30.77;;
18610;SDS011;9435;52.122;5.502;2022-11-15T08:22:53;74.20;;;31.80;;
18610;SDS011;9435;52.122;5.502;2022-11-15T08:25:20;72.18;;;31.17;;
18610;SDS011;9435;52.122;5.502;2022-11-15T08:27:47;74.18;;;30.77;;
18610;SDS011;9435;52.122;5.502;2022-11-15T08:30:17;75.35;;;31.20;;
18610;SDS011;9435;52.122;5.502;2022-11-15T08:32:44;69.82;;;29.23;;
18610;SDS011;9435;52.122;5.502;2022-11-15T08:35:11;68.30;;;30.30;;
18610;SDS011;9435;52.122;5.502;2022-11-15T08:37:39;67.15;;;28.83;;
18610;SDS011;9435;52.122;5.502;2022-11-15T08:40:07;68.72;;;29.00;;
18610;SDS011;9435;52.122;5.502;2022-11-15T08:42:34;64.50;;;26.83;;
18610;SDS011;9435;52.122;5.502;2022-11-15T08:45:01;55.75;;;25.80;;
18610;SDS011;9435;52.122;5.502;2022-11-15T08:47:29;59.75;;;25.45;;
18610;SDS011;9435;52.122;5.502;2022-11-15T08:49:56;55.42;;;24.40;;
18610;SDS011;9435;52.122;5.502;2022-11-15T08:52:23;50.63;;;24.55;;
18610;SDS011;9435;52.122;5.502;2022-11-15T08:54:52;51.42;;;23.02;;
18610;SDS011;9435;52.122;5.502;2022-11-15T08:57:19;50.45;;;23.25;;
18610;SDS011;9435;52.122;5.502;2022-11-15T08:59:46;46.28;;;21.50;;
18610;SDS011;9435;52.122;5.502;2022-11-15T09:02:13;47.38;;;20.95;;
18610;SDS011;9435;52.122;5.502;2022-11-15T09:04:40;44.40;;;20.17;;
18610;SDS011;9435;52.122;5.502;2022-11-15T09:07:08;41.83;;;19.92;;
18610;SDS011;9435;52.122;5.502;2022-11-15T09:09:35;38.40;;;18.77;;
18610;SDS011;9435;52.122;5.502;2022-11-15T09:12:04;38.47;;;18.85;;
18610;SDS011;9435;52.122;5.502;2022-11-15T09:14:32;38.60;;;17.95;;
18610;SDS011;9435;52.122;5.502;2022-11-15T09:16:59;37.60;;;18.90;;
18610;SDS011;9435;52.122;5.502;2022-11-15T09:19:27;39.28;;;19.38;;
18610;SDS011;9435;52.122;5.502;2022-11-15T09:21:54;36.00;;;18.17;;
18610;SDS011;9435;52.122;5.502;2022-11-15T09:24:21;35.22;;;18.17;;
18610;SDS011;9435;52.122;5.502;2022-11-15T09:26:49;33.00;;;17.38;;
18610;SDS011;9435;52.122;5.502;2022-11-15T09:29:18;32.80;;;17.33;;
18610;SDS011;9435;52.122;5.502;2022-11-15T09:31:45;36.42;;;17.85;;
18610;SDS011;9435;52.122;5.502;2022-11-15T09:34:12;34.63;;;17.52;;
18610;SDS011;9435;52.122;5.502;2022-11-15T09:36:39;32.72;;;16.45;;
18610;SDS011;9435;52.122;5.502;2022-11-15T09:39:06;30.55;;;15.55;;
18610;SDS011;9435;52.122;5.502;2022-11-15T09:41:38;32.70;;;15.95;;
18610;SDS011;9435;52.122;5.502;2022-11-15T09:44:32;29.80;;;15.32;;
18610;SDS011;9435;52.122;5.502;2022-11-15T09:47:10;28.80;;;14.85;;
18610;SDS011;9435;52.122;5.502;2022-11-15T09:49:55;29.55;;;14.88;;
18610;SDS011;9435;52.122;5.502;2022-11-15T09:52:25;28.38;;;14.45;;
18610;SDS011;9435;52.122;5.502;2022-11-15T09:54:53;26.15;;;14.50;;
18610;SDS011;9435;52.122;5.502;2022-11-15T09:57:21;27.88;;;14.45;;
18610;SDS011;9435;52.122;5.502;2022-11-15T09:59:58;27.35;;;14.30;;
18610;SDS011;9435;52.122;5.502;2022-11-15T10:02:36;27.15;;;14.95;;
18610;SDS011;9435;52.122;5.502;2022-11-15T10:05:14;24.30;;;13.25;;
18610;SDS011;9435;52.122;5.502;2022-11-15T10:07:46;22.20;;;13.13;;
18610;SDS011;9435;52.122;5.502;2022-11-15T10:10:24;22.83;;;12.63;;
18610;SDS011;9435;52.122;5.502;2022-11-15T10:12:55;25.70;;;11.90;;
18610;SDS011;9435;52.122;5.502;2022-11-15T10:15:25;19.55;;;11.00;;
18610;SDS011;9435;52.122;5.502;2022-11-15T10:18:02;18.70;;;10.85;;
18610;SDS011;9435;52.122;5.502;2022-11-15T10:20:39;19.63;;;10.15;;
18610;SDS011;9435;52.122;5.502;2022-11-15T10:23:13;14.95;;;9.52;;
18610;SDS011;9435;52.122;5.502;2022-11-15T10:25:42;17.08;;;9.45;;
18610;SDS011;9435;52.122;5.502;2022-11-15T10:28:11;16.33;;;9.48;;
18610;SDS011;9435;52.122;5.502;2022-11-15T10:30:44;19.23;;;9.88;;
18610;SDS011;9435;52.122;5.502;2022-11-15T10:33:24;16.27;;;9.35;;
18610;SDS011;9435;52.122;5.502;2022-11-15T10:38:53;13.45;;;6.50;;
18610;SDS011;9435;52.122;5.502;2022-11-15T10:41:27;11.57;;;5.90;;
18610;SDS011;9435;52.122;5.502;2022-11-15T10:44:03;11.18;;;5.65;;
18610;SDS011;9435;52.122;5.502;2022-11-15T10:49:54;9.38;;;4.90;;
18610;SDS011;9435;52.122;5.502;2022-11-15T10:52:25;10.43;;;4.97;;
18610;SDS011;9435;52.122;5.502;2022-11-15T10:54:55;8.88;;;4.60;;
18610;SDS011;9435;52.122;5.502;2022-11-15T10:57:26;7.13;;;4.47;;
18610;SDS011;9435;52.122;5.502;2022-11-15T10:59:56;6.50;;;4.15;;
18610;SDS011;9435;52.122;5.502;2022-11-15T11:02:31;8.77;;;4.00;;
18610;SDS011;9435;52.122;5.502;2022-11-15T11:05:01;10.32;;;4.30;;
18610;SDS011;9435;52.122;5.502;2022-11-15T11:07:30;8.80;;;4.22;;
18610;SDS011;9435;52.122;5.502;2022-11-15T11:10:00;5.82;;;3.85;;
18610;SDS011;9435;52.122;5.502;2022-11-15T11:12:29;7.43;;;3.60;;
18610;SDS011;9435;52.122;5.502;2022-11-15T11:14:59;6.38;;;3.72;;
18610;SDS011;9435;52.122;5.502;2022-11-15T11:17:35;7.57;;;3.28;;
18610;SDS011;9435;52.122;5.502;2022-11-15T11:20:14;7.65;;;3.80;;
18610;SDS011;9435;52.122;5.502;2022-11-15T11:22:56;8.13;;;3.70;;
18610;SDS011;9435;52.122;5.502;2022-11-15T11:25:31;8.13;;;3.65;;
18610;SDS011;9435;52.122;5.502;2022-11-15T11:28:14;6.68;;;3.70;;
18610;SDS011;9435;52.122;5.502;2022-11-15T11:30:54;10.95;;;4.10;;
18610;SDS011;9435;52.122;5.502;2022-11-15T11:33:33;7.75;;;3.80;;
18610;SDS011;9435;52.122;5.502;2022-11-15T11:36:11;6.70;;;3.72;;
18610;SDS011;9435;52.122;5.502;2022-11-15T11:38:50;7.47;;;3.78;;
18610;SDS011;9435;52.122;5.502;2022-11-15T11:44:28;6.20;;;3.30;;
18610;SDS011;9435;52.122;5.502;2022-11-15T11:47:03;7.50;;;3.45;;
18610;SDS011;9435;52.122;5.502;2022-11-15T11:49:38;7.32;;;3.63;;
18610;SDS011;9435;52.122;5.502;2022-11-15T11:52:12;7.97;;;3.40;;
18610;SDS011;9435;52.122;5.502;2022-11-15T11:54:46;11.45;;;3.55;;
18610;SDS011;9435;52.122;5.502;2022-11-15T11:57:22;6.15;;;2.90;;
18610;SDS011;9435;52.122;5.502;2022-11-15T11:59:58;7.13;;;3.40;;
18610;SDS011;9435;52.122;5.502;2022-11-15T12:02:31;8.27;;;3.05;;
18610;SDS011;9435;52.122;5.502;2022-11-15T12:05:07;7.57;;;3.42;;
18610;SDS011;9435;52.122;5.502;2022-11-15T12:07:39;6.20;;;3.05;;
18610;SDS011;9435;52.122;5.502;2022-11-15T12:10:14;5.70;;;3.30;;
18610;SDS011;9435;52.122;5.502;2022-11-15T12:12:50;7.88;;;2.80;;
18610;SDS011;9435;52.122;5.502;2022-11-15T12:15:24;8.05;;;2.50;;
18610;SDS011;9435;52.122;5.502;2022-11-15T12:17:54;6.32;;;2.10;;
18610;SDS011;9435;52.122;5.502;2022-11-15T12:20:25;8.32;;;2.03;;
18610;SDS011;9435;52.122;5.502;2022-11-15T12:22:56;7.35;;;1.92;;
18610;SDS011;9435;52.122;5.502;2022-11-15T12:25:27;5.03;;;2.15;;
18610;SDS011;9435;52.122;5.502;2022-11-15T12:27:59;5.28;;;1.83;;
18610;SDS011;9435;52.122;5.502;2022-11-15T12:30:39;5.93;;;2.08;;
18610;SDS011;9435;52.122;5.502;2022-11-15T12:36:02;5.00;;;1.70;;
18610;SDS011;9435;52.122;5.502;2022-11-15T12:38:50;5.13;;;1.60;;
18610;SDS011;9435;52.122;5.502;2022-11-15T12:41:20;5.05;;;1.70;;
18610;SDS011;9435;52.122;5.502;2022-11-15T12:43:48;4.50;;;1.70;;
18610;SDS011;9435;52.122;5.502;2022-11-15T12:46:20;5.55;;;1.80;;
18610;SDS011;9435;52.122;5.502;2022-11-15T12:48:50;6.47;;;1.90;;
18610;SDS011;9435;52.122;5.502;2022-11-15T12:52:02;6.18;;;2.08;;
18610;SDS011;9435;52.122;5.502;2022-11-15T12:57:36;6.28;;;2.17;;
18610;SDS011;9435;52.122;5.502;2022-11-15T13:03:22;6.38;;;2.00;;
18610;SDS011;9435;52.122;5.502;2022-11-15T13:06:04;6.82;;;2.10;;
18610;SDS011;9435;52.122;5.502;2022-11-15T13:08:38;8.00;;;2.10;;
18610;SDS011;9435;52.122;5.502;2022-11-15T13:17:30;15.35;;;3.50;;
18610;SDS011;9435;52.122;5.502;2022-11-15T13:22:58;6.68;;;2.50;;
18610;SDS011;9435;52.122;5.502;2022-11-15T13:25:48;7.97;;;2.83;;
18610;SDS011;9435;52.122;5.502;2022-11-15T13:28:30;6.30;;;2.75;;
18610;SDS011;9435;52.122;5.502;2022-11-15T13:31:02;6.18;;;2.60;;
18610;SDS011;9435;52.122;5.502;2022-11-15T13:33:40;6.43;;;2.97;;
18610;SDS011;9435;52.122;5.502;2022-11-15T13:36:11;5.63;;;2.10;;
18610;SDS011;9435;52.122;5.502;2022-11-15T13:38:41;8.70;;;2.30;;
18610;SDS011;9435;52.122;5.502;2022-11-15T13:41:17;5.65;;;2.15;;
18610;SDS011;9435;52.122;5.502;2022-11-15T13:43:47;6.15;;;2.00;;
18610;SDS011;9435;52.122;5.502;2022-11-15T13:46:16;6.05;;;1.92;;
18610;SDS011;9435;52.122;5.502;2022-11-15T13:48:45;4.43;;;1.52;;
18610;SDS011;9435;52.122;5.502;2022-11-15T13:51:15;7.22;;;1.77;;
18610;SDS011;9435;52.122;5.502;2022-11-15T13:53:46;5.38;;;1.70;;
18610;SDS011;9435;52.122;5.502;2022-11-15T13:56:19;6.30;;;1.90;;
18610;SDS011;9435;52.122;5.502;2022-11-15T13:58:47;4.47;;;1.65;;
18610;SDS011;9435;52.122;5.502;2022-11-15T14:01:16;6.93;;;1.90;;
18610;SDS011;9435;52.122;5.502;2022-11-15T14:03:53;6.78;;;1.75;;
18610;SDS011;9435;52.122;5.502;2022-11-15T14:06:23;6.18;;;2.05;;
18610;SDS011;9435;52.122;5.502;2022-11-15T14:08:59;4.18;;;1.75;;
18610;SDS011;9435;52.122;5.502;2022-11-15T14:11:50;5.70;;;1.70;;
18610;SDS011;9435;52.122;5.502;2022-11-15T14:14:19;6.82;;;2.03;;
18610;SDS011;9435;52.122;5.502;2022-11-15T14:16:48;8.32;;;1.98;;
18610;SDS011;9435;52.122;5.502;2022-11-15T14:19:33;5.20;;;1.70;;
18610;SDS011;9435;52.122;5.502;2022-11-15T14:22:08;6.15;;;1.55;;
18610;SDS011;9435;52.122;5.502;2022-11-15T14:24:40;7.53;;;1.60;;
18610;SDS011;9435;52.122;5.502;2022-11-15T14:27:21;4.40;;;1.42;;
18610;SDS011;9435;52.122;5.502;2022-11-15T14:29:50;7.22;;;1.58;;
18610;SDS011;9435;52.122;5.502;2022-11-15T14:32:18;6.63;;;1.75;;
18610;SDS011;9435;52.122;5.502;2022-11-15T14:34:46;5.47;;;1.60;;
18610;SDS011;9435;52.122;5.502;2022-11-15T14:37:21;4.30;;;1.45;;
18610;SDS011;9435;52.122;5.502;2022-11-15T14:39:51;4.03;;;1.50;;
18610;SDS011;9435;52.122;5.502;2022-11-15T14:42:20;7.32;;;1.60;;
18610;SDS011;9435;52.122;5.502;2022-11-15T14:44:48;5.97;;;1.48;;
18610;SDS011;9435;52.122;5.502;2022-11-15T14:47:15;2.97;;;1.30;;
18610;SDS011;9435;52.122;5.502;2022-11-15T14:49:42;5.25;;;1.50;;
18610;SDS011;9435;52.122;5.502;2022-11-15T14:55:00;6.30;;;1.48;;
18610;SDS011;9435;52.122;5.502;2022-11-15T14:57:31;4.65;;;1.48;;
18610;SDS011;9435;52.122;5.502;2022-11-15T14:59:58;6.72;;;1.63;;
18610;SDS011;9435;52.122;5.502;2022-11-15T15:02:26;4.35;;;1.40;;
18610;SDS011;9435;52.122;5.502;2022-11-15T15:04:53;5.75;;;1.48;;
18610;SDS011;9435;52.122;5.502;2022-11-15T15:07:21;4.45;;;1.50;;
18610;SDS011;9435;52.122;5.502;2022-11-15T15:09:48;5.88;;;1.38;;
18610;SDS011;9435;52.122;5.502;2022-11-15T15:12:16;4.50;;;1.50;;
18610;SDS011;9435;52.122;5.502;2022-11-15T15:14:46;4.63;;;1.55;;
18610;SDS011;9435;52.122;5.502;2022-11-15T15:17:15;4.57;;;1.40;;
18610;SDS011;9435;52.122;5.502;2022-11-15T15:19:42;3.83;;;1.40;;
18610;SDS011;9435;52.122;5.502;2022-11-15T15:22:11;3.90;;;1.35;;
18610;SDS011;9435;52.122;5.502;2022-11-15T15:24:40;2.58;;;1.38;;
18610;SDS011;9435;52.122;5.502;2022-11-15T15:27:07;5.72;;;1.30;;
18610;SDS011;9435;52.122;5.502;2022-11-15T15:29:35;4.25;;;1.50;;
18610;SDS011;9435;52.122;5.502;2022-11-15T15:32:03;2.80;;;1.40;;
18610;SDS011;9435;52.122;5.502;2022-11-15T15:34:31;3.92;;;1.30;;
18610;SDS011;9435;52.122;5.502;2022-11-15T15:39:49;5.00;;;1.33;;
18610;SDS011;9435;52.122;5.502;2022-11-15T15:42:16;4.68;;;1.35;;
18610;SDS011;9435;52.122;5.502;2022-11-15T15:44:43;4.15;;;1.42;;